createdAt,value
2019-03-09T00:01:59.052Z,9.90
2019-03-09T00:12:44.350Z,11.60
2019-03-09T00:23:27.699Z,11.30
2019-03-09T00:34:09.707Z,7.80
2019-03-09T00:44:53.922Z,9.10
2019-03-09T00:55:37.620Z,9.50
2019-03-09T01:06:22.455Z,6.80
2019-03-09T01:17:06.114Z,7.90
2019-03-09T01:27:49.680Z,8.20
2019-03-09T01:38:35.445Z,7.40
2019-03-09T01:49:18.568Z,7.20
2019-03-09T02:00:02.054Z,7.20
2019-03-09T02:10:46.231Z,5.00
2019-03-09T02:21:30.204Z,5.30
2019-03-09T02:32:13.285Z,4.70
2019-03-09T02:42:56.139Z,2.80
2019-03-09T02:53:42.791Z,5.00
2019-03-09T03:04:26.997Z,4.70
2019-03-09T03:15:10.129Z,3.10
2019-03-09T03:25:54.693Z,3.00
2019-03-09T03:36:39.950Z,3.30
2019-03-09T03:47:26.454Z,1.70
2019-03-09T03:58:09.949Z,1.80
2019-03-09T04:08:55.477Z,1.40
2019-03-09T04:19:40.970Z,0.80
2019-03-09T04:30:24.828Z,1.30
2019-03-09T04:41:09.739Z,0.40
2019-03-09T04:51:55.226Z,0.60
2019-03-09T05:02:35.551Z,1.10
2019-03-09T05:13:21.517Z,0.30
2019-03-09T05:24:06.664Z,1.20
2019-03-09T05:34:51.228Z,0.30
2019-03-09T05:45:37.643Z,0.30
2019-03-09T05:56:21.557Z,0.30
2019-03-09T06:07:05.279Z,0.60
2019-03-09T06:17:50.667Z,0.60
2019-03-09T06:28:34.210Z,1.30
2019-03-09T06:39:19.689Z,1.20
2019-03-09T06:50:04.488Z,0.70
2019-03-09T07:00:49.993Z,1.80
2019-03-09T07:11:36.807Z,1.90
2019-03-09T07:22:21.213Z,1.10
2019-03-09T07:33:06.952Z,2.00
2019-03-09T07:43:50.651Z,1.90
2019-03-09T07:54:35.971Z,1.70
2019-03-09T08:05:20.996Z,1.50
2019-03-09T08:16:07.633Z,3.10
2019-03-09T08:26:52.003Z,2.80
2019-03-09T08:37:37.168Z,3.60
2019-03-09T08:48:24.101Z,4.10
2019-03-09T08:59:10.070Z,5.00
2019-03-09T09:09:51.030Z,3.70
2019-03-09T09:20:35.150Z,4.70
2019-03-09T09:31:19.658Z,5.00
2019-03-09T09:42:05.179Z,5.20
2019-03-09T09:52:50.912Z,4.70
2019-03-09T10:03:37.501Z,4.80
2019-03-09T10:14:22.762Z,4.60
2019-03-09T10:25:07.381Z,3.40
2019-03-09T10:35:52.587Z,3.20
2019-03-09T10:46:36.273Z,3.00
2019-03-09T10:57:20.255Z,2.10
2019-03-09T11:08:05.682Z,2.70
2019-03-09T11:18:51.768Z,3.20
2019-03-09T11:29:36.588Z,2.50
2019-03-09T11:40:21.807Z,1.40
2019-03-09T11:51:07.131Z,2.60
2019-03-09T12:01:52.885Z,3.20
2019-03-09T12:12:38.516Z,3.20
2019-03-09T12:23:22.691Z,2.50
2019-03-09T12:34:08.235Z,2.70
2019-03-09T12:44:49.765Z,2.00
2019-03-09T12:55:35.175Z,1.90
2019-03-09T13:06:20.768Z,2.20
2019-03-09T13:17:05.405Z,1.80
2019-03-09T13:27:51.350Z,1.90
2019-03-09T13:38:34.496Z,3.00
2019-03-09T13:49:16.287Z,3.50
2019-03-09T14:00:01.592Z,2.70
2019-03-09T14:10:46.074Z,4.60
2019-03-09T14:21:29.520Z,4.60
2019-03-09T14:32:14.930Z,9.30
2019-03-09T14:42:58.989Z,10.40
2019-03-09T14:53:44.065Z,15.70
2019-03-09T15:04:27.681Z,12.50
2019-03-09T15:15:12.249Z,16.40
2019-03-09T15:25:58.294Z,17.70
2019-03-09T15:36:41.779Z,13.40
2019-03-09T15:47:27.698Z,17.10
2019-03-09T15:58:12.781Z,17.20
2019-03-09T16:08:55.790Z,15.10
2019-03-09T16:19:40.814Z,16.50
2019-03-09T16:30:25.076Z,16.90
2019-03-09T16:41:07.337Z,16.30
2019-03-09T16:51:51.425Z,15.40
2019-03-09T17:02:34.164Z,9.90
2019-03-09T17:13:15.124Z,10.80
2019-03-09T17:23:58.602Z,13.90
2019-03-09T17:34:44.289Z,13.80
2019-03-09T17:45:30.112Z,18.90
2019-03-09T17:56:16.006Z,14.60
2019-03-09T18:07:00.992Z,18.50
2019-03-09T18:17:41.432Z,15.00
2019-03-09T18:28:23.423Z,17.30
2019-03-09T18:39:08.787Z,19.00
2019-03-09T18:49:52.548Z,27.10
2019-03-09T19:00:37.314Z,26.90
2019-03-09T19:11:20.718Z,29.70
2019-03-09T19:22:04.174Z,27.40
2019-03-09T19:32:59.612Z,29.40
2019-03-09T19:43:29.350Z,30.70
2019-03-09T19:54:15.648Z,27.70
2019-03-09T20:04:57.561Z,26.00
2019-03-09T20:15:40.967Z,24.70
2019-03-09T20:26:18.857Z,23.70
2019-03-09T20:37:02.783Z,21.80
2019-03-09T20:47:45.654Z,22.10
2019-03-09T20:58:28.618Z,22.90
2019-03-09T21:09:12.893Z,24.30
2019-03-09T21:19:54.234Z,27.50
2019-03-09T21:30:38.130Z,23.20
2019-03-09T21:41:24.238Z,28.00
2019-03-09T21:52:08.551Z,24.30
2019-03-09T22:02:54.542Z,24.00
2019-03-09T22:13:35.176Z,25.40
2019-03-09T22:24:18.708Z,22.10
2019-03-09T22:35:03.093Z,19.50
2019-03-09T22:45:49.258Z,25.70
2019-03-09T22:56:35.193Z,24.00
2019-03-09T23:07:16.122Z,25.30
2019-03-09T23:18:00.659Z,26.50
2019-03-09T23:28:43.708Z,25.00
2019-03-09T23:39:29.148Z,36.30
2019-03-09T23:50:14.576Z,32.90
